createdAt,value
2023-03-30T00:02:12.906Z,17.37
2023-03-30T00:04:43.039Z,16.57
2023-03-30T00:07:13.267Z,17.07
2023-03-30T00:09:43.403Z,16.70
2023-03-30T00:12:11.696Z,17.30
2023-03-30T00:14:41.067Z,18.03
2023-03-30T00:17:09.461Z,17.03
2023-03-30T00:19:37.778Z,17.03
2023-03-30T00:22:06.658Z,16.37
2023-03-30T00:24:36.788Z,17.07
2023-03-30T00:27:05.044Z,17.77
2023-03-30T00:29:33.009Z,17.73
2023-03-30T00:32:01.237Z,16.73
2023-03-30T00:34:29.332Z,16.60
2023-03-30T00:36:57.668Z,16.50
2023-03-30T00:39:26.616Z,17.20
2023-03-30T00:41:56.047Z,16.80
2023-03-30T00:45:01.645Z,16.90
2023-03-30T00:47:30.524Z,16.90
2023-03-30T00:49:59.173Z,17.07
2023-03-30T00:52:28.104Z,16.80
2023-03-30T00:54:58.393Z,16.23
2023-03-30T00:57:29.033Z,16.50
2023-03-30T00:59:57.503Z,17.37
2023-03-30T01:02:25.711Z,17.00
2023-03-30T01:04:57.603Z,17.40
2023-03-30T01:07:25.943Z,17.37
2023-03-30T01:09:54.029Z,17.30
2023-03-30T01:12:22.171Z,17.53
2023-03-30T01:14:51.936Z,17.93
2023-03-30T01:17:29.762Z,16.63
2023-03-30T01:20:30.363Z,16.80
2023-03-30T01:23:14.651Z,17.10
2023-03-30T01:26:26.039Z,17.30
2023-03-30T01:29:00.501Z,16.63
2023-03-30T01:32:05.790Z,17.83
2023-03-30T01:34:59.200Z,16.93
2023-03-30T01:37:57.404Z,16.90
2023-03-30T01:40:30.417Z,17.60
2023-03-30T01:43:02.452Z,17.50
2023-03-30T01:45:39.270Z,17.33
2023-03-30T01:48:11.404Z,17.13
2023-03-30T01:50:43.191Z,19.10
2023-03-30T01:53:17.559Z,16.90
2023-03-30T01:55:49.695Z,15.70
2023-03-30T01:58:24.232Z,17.03
2023-03-30T02:00:53.801Z,16.40
2023-03-30T02:03:28.373Z,18.00
2023-03-30T02:06:04.032Z,17.77
2023-03-30T02:08:35.673Z,17.60
2023-03-30T02:11:05.552Z,16.80
2023-03-30T02:13:35.368Z,18.13
2023-03-30T02:16:08.009Z,17.30
2023-03-30T02:18:38.279Z,17.40
2023-03-30T02:21:06.620Z,18.50
2023-03-30T02:23:39.639Z,17.73
2023-03-30T02:26:09.705Z,17.67
2023-03-30T02:28:37.736Z,17.47
2023-03-30T02:31:11.225Z,17.67
2023-03-30T02:33:48.912Z,18.40
2023-03-30T02:36:34.445Z,17.10
2023-03-30T02:39:22.094Z,18.63
2023-03-30T02:42:11.300Z,17.90
2023-03-30T02:44:47.265Z,17.67
2023-03-30T02:47:23.658Z,17.37
2023-03-30T02:49:58.704Z,17.07
2023-03-30T02:52:43.202Z,18.47
2023-03-30T02:55:19.554Z,17.13
2023-03-30T02:57:58.783Z,16.80
2023-03-30T03:00:32.357Z,16.90
2023-03-30T03:03:12.298Z,17.90
2023-03-30T03:05:42.893Z,16.97
2023-03-30T03:08:13.835Z,17.77
2023-03-30T03:10:41.832Z,17.30
2023-03-30T03:13:11.945Z,16.70
2023-03-30T03:15:40.276Z,16.93
2023-03-30T03:18:08.617Z,16.73
2023-03-30T03:20:36.672Z,17.53
2023-03-30T03:23:04.809Z,17.67
2023-03-30T03:25:32.869Z,17.10
2023-03-30T03:28:00.894Z,17.27
2023-03-30T03:30:30.301Z,16.60
2023-03-30T03:32:58.383Z,16.47
2023-03-30T03:35:27.414Z,17.13
2023-03-30T03:37:55.373Z,16.87
2023-03-30T03:40:23.444Z,16.27
2023-03-30T03:42:51.503Z,16.10
2023-03-30T03:45:19.482Z,16.40
2023-03-30T03:47:51.513Z,16.00
2023-03-30T03:50:19.732Z,16.60
2023-03-30T03:52:47.787Z,16.07
2023-03-30T03:55:15.935Z,17.30
2023-03-30T03:57:45.121Z,16.90
2023-03-30T04:00:17.454Z,16.20
2023-03-30T04:02:46.024Z,16.33
2023-03-30T04:05:16.023Z,15.00
2023-03-30T04:07:46.395Z,15.90
2023-03-30T04:10:15.552Z,15.47
2023-03-30T04:12:43.477Z,16.93
2023-03-30T04:15:11.877Z,15.37
2023-03-30T04:17:39.892Z,16.90
2023-03-30T04:20:12.220Z,16.20
2023-03-30T04:22:42.800Z,16.07
2023-03-30T04:25:15.034Z,16.63
2023-03-30T04:27:43.860Z,16.40
2023-03-30T04:30:13.357Z,16.70
2023-03-30T04:32:41.562Z,17.30
2023-03-30T04:35:11.108Z,37.27
2023-03-30T04:37:42.222Z,35.73
2023-03-30T04:40:13.217Z,37.53
2023-03-30T04:42:41.271Z,36.50
2023-03-30T04:45:10.144Z,35.40
2023-03-30T04:47:38.163Z,36.87
2023-03-30T04:50:06.859Z,38.60
2023-03-30T04:52:34.808Z,37.30
2023-03-30T04:55:03.138Z,15.83
2023-03-30T04:57:32.458Z,16.37
2023-03-30T05:00:00.488Z,16.60
2023-03-30T05:02:28.686Z,16.90
2023-03-30T05:04:56.739Z,19.67
2023-03-30T05:07:24.704Z,17.10
2023-03-30T05:09:52.868Z,17.70
2023-03-30T05:12:21.600Z,19.27
2023-03-30T05:14:51.031Z,16.33
2023-03-30T05:17:19.025Z,15.27
2023-03-30T05:19:47.299Z,15.83
2023-03-30T05:22:16.441Z,15.70
2023-03-30T05:24:44.478Z,16.33
2023-03-30T05:27:12.451Z,22.03
2023-03-30T05:29:40.416Z,23.83
2023-03-30T05:32:09.928Z,21.80
2023-03-30T05:34:37.943Z,21.20
2023-03-30T05:37:06.279Z,24.37
2023-03-30T05:39:34.307Z,20.50
2023-03-30T05:42:02.762Z,20.57
2023-03-30T05:44:31.010Z,18.90
2023-03-30T05:46:59.044Z,22.43
2023-03-30T05:49:28.470Z,19.70
2023-03-30T05:51:57.091Z,21.57
2023-03-30T05:54:26.595Z,18.83
2023-03-30T05:56:54.621Z,22.03
2023-03-30T05:59:22.689Z,25.13
2023-03-30T06:01:50.706Z,19.63
2023-03-30T06:04:19.080Z,20.03
2023-03-30T06:06:48.557Z,20.53
2023-03-30T06:09:16.661Z,21.23
2023-03-30T06:11:44.674Z,36.90
2023-03-30T06:14:12.663Z,39.03
2023-03-30T06:16:41.145Z,43.60
2023-03-30T06:19:09.142Z,42.27
2023-03-30T06:21:37.216Z,40.73
2023-03-30T06:24:07.074Z,21.57
2023-03-30T06:26:35.180Z,43.70
2023-03-30T06:29:04.331Z,41.90
2023-03-30T06:31:32.359Z,41.97
2023-03-30T06:34:00.509Z,41.47
2023-03-30T06:36:44.352Z,46.17
2023-03-30T06:39:15.914Z,45.60
2023-03-30T06:41:43.914Z,40.63
2023-03-30T06:44:14.819Z,21.10
2023-03-30T06:46:43.317Z,39.20
2023-03-30T06:49:13.393Z,44.53
2023-03-30T06:51:42.056Z,42.83
2023-03-30T06:54:10.076Z,43.93
2023-03-30T06:56:39.473Z,44.30
2023-03-30T06:59:07.453Z,44.33
2023-03-30T07:01:35.517Z,42.77
2023-03-30T07:04:04.585Z,40.87
2023-03-30T07:06:33.028Z,43.33
2023-03-30T07:09:01.597Z,41.13
2023-03-30T07:11:29.607Z,42.60
2023-03-30T07:14:01.240Z,42.30
2023-03-30T07:16:29.329Z,42.87
2023-03-30T07:18:57.336Z,48.93
2023-03-30T07:21:25.693Z,43.70
2023-03-30T07:23:53.672Z,48.47
2023-03-30T07:26:21.646Z,42.50
2023-03-30T07:28:49.602Z,26.13
2023-03-30T07:31:20.220Z,20.90
2023-03-30T07:33:48.591Z,23.30
2023-03-30T07:36:16.924Z,21.47
2023-03-30T07:38:44.963Z,21.00
2023-03-30T07:41:14.828Z,24.43
2023-03-30T07:43:43.071Z,26.37
2023-03-30T07:46:12.978Z,26.73
2023-03-30T07:48:42.416Z,29.13
2023-03-30T07:51:12.232Z,28.67
2023-03-30T07:53:40.879Z,27.80
2023-03-30T07:56:09.064Z,23.20
2023-03-30T07:58:37.513Z,23.40
2023-03-30T08:01:05.786Z,25.70
2023-03-30T08:03:34.194Z,22.27
2023-03-30T08:06:05.782Z,23.33
2023-03-30T08:08:35.092Z,24.17
2023-03-30T08:11:03.394Z,23.10
2023-03-30T08:13:32.882Z,24.00
2023-03-30T08:16:01.283Z,24.00
2023-03-30T08:18:29.373Z,21.17
2023-03-30T08:20:57.458Z,25.07
2023-03-30T08:23:27.070Z,22.33
2023-03-30T08:25:58.169Z,22.00
2023-03-30T08:28:26.712Z,20.80
2023-03-30T08:30:54.700Z,21.27
2023-03-30T08:33:24.133Z,20.00
2023-03-30T08:35:52.519Z,21.00
2023-03-30T08:38:20.700Z,22.40
2023-03-30T08:40:51.259Z,22.87
2023-03-30T08:43:31.807Z,22.17
2023-03-30T08:46:01.780Z,24.13
2023-03-30T08:48:33.588Z,26.00
2023-03-30T08:51:07.139Z,17.83
2023-03-30T08:53:35.965Z,25.97
2023-03-30T08:56:10.460Z,25.80
2023-03-30T08:58:47.438Z,21.30
2023-03-30T09:01:21.521Z,34.73
2023-03-30T09:04:03.777Z,45.73
2023-03-30T09:06:42.328Z,41.67
2023-03-30T09:09:14.053Z,41.70
2023-03-30T09:11:43.829Z,39.90
2023-03-30T09:14:17.959Z,41.87
2023-03-30T09:16:52.791Z,40.40
2023-03-30T09:19:28.617Z,39.53
2023-03-30T09:21:58.767Z,40.43
2023-03-30T09:24:29.604Z,39.03
2023-03-30T09:27:08.135Z,44.60
2023-03-30T09:29:41.521Z,40.50
2023-03-30T09:32:15.376Z,41.00
2023-03-30T09:34:47.202Z,45.47
2023-03-30T09:37:18.755Z,41.13
2023-03-30T09:39:47.964Z,42.17
2023-03-30T09:42:26.867Z,41.20
2023-03-30T09:44:59.688Z,43.63
2023-03-30T09:47:29.734Z,43.83
2023-03-30T09:49:59.406Z,40.92
2023-03-30T09:52:29.717Z,43.92
2023-03-30T09:54:57.849Z,41.08
2023-03-30T09:57:30.085Z,44.40
2023-03-30T09:59:59.888Z,56.15
2023-03-30T10:02:31.358Z,41.92
2023-03-30T10:05:03.290Z,40.22
2023-03-30T10:07:36.587Z,41.70
2023-03-30T10:10:16.893Z,41.92
2023-03-30T10:12:46.485Z,41.87
2023-03-30T10:15:18.296Z,41.45
2023-03-30T10:17:48.707Z,42.50
2023-03-30T10:20:24.763Z,40.58
2023-03-30T10:22:55.755Z,40.72
2023-03-30T10:25:25.595Z,39.47
2023-03-30T10:27:58.592Z,42.00
2023-03-30T10:30:29.351Z,40.83
2023-03-30T10:33:00.241Z,39.83
2023-03-30T10:35:35.280Z,23.60
2023-03-30T10:38:05.421Z,30.88
2023-03-30T10:40:37.770Z,36.55
2023-03-30T10:43:13.809Z,31.85
2023-03-30T10:45:45.886Z,18.63
2023-03-30T10:48:34.098Z,27.88
2023-03-30T10:51:09.039Z,19.85
2023-03-30T10:53:44.202Z,29.35
2023-03-30T10:56:23.517Z,24.55
2023-03-30T10:59:26.142Z,24.15
2023-03-30T11:02:05.556Z,20.88
2023-03-30T11:04:38.597Z,23.33
2023-03-30T11:07:13.718Z,21.55
2023-03-30T11:09:45.626Z,21.67
2023-03-30T11:12:19.689Z,20.13
2023-03-30T11:14:52.629Z,21.38
2023-03-30T11:17:24.893Z,20.55
2023-03-30T11:19:56.944Z,22.27
2023-03-30T11:22:34.442Z,20.33
2023-03-30T11:25:04.753Z,22.63
2023-03-30T11:27:36.439Z,23.80
2023-03-30T11:30:14.421Z,22.45
2023-03-30T11:32:49.143Z,21.80
2023-03-30T11:35:23.258Z,21.20
2023-03-30T11:37:59.160Z,22.80
2023-03-30T11:40:28.823Z,25.95
2023-03-30T11:42:56.994Z,25.98
2023-03-30T11:45:44.846Z,24.13
2023-03-30T11:48:36.017Z,21.73
2023-03-30T11:51:16.826Z,23.23
2023-03-30T11:53:53.910Z,21.67
2023-03-30T11:56:29.412Z,21.60
2023-03-30T11:59:05.850Z,20.58
2023-03-30T12:01:50.738Z,21.05
2023-03-30T12:04:27.236Z,32.80
2023-03-30T12:06:59.132Z,25.92
2023-03-30T12:09:30.254Z,25.98
2023-03-30T12:12:05.969Z,22.63
2023-03-30T12:15:10.591Z,20.30
2023-03-30T12:17:47.149Z,49.45
2023-03-30T12:20:28.862Z,38.08
2023-03-30T12:23:01.400Z,25.15
2023-03-30T12:25:36.399Z,27.10
2023-03-30T12:28:11.972Z,27.17
2023-03-30T12:30:46.191Z,23.02
2023-03-30T12:33:19.814Z,22.20
2023-03-30T12:36:03.256Z,22.33
2023-03-30T12:38:41.547Z,23.70
2023-03-30T12:41:20.804Z,41.72
2023-03-30T12:44:14.973Z,22.75
2023-03-30T12:46:59.466Z,40.63
2023-03-30T12:49:44.015Z,38.53
2023-03-30T12:52:15.126Z,33.50
2023-03-30T12:55:04.704Z,21.20
2023-03-30T12:57:40.208Z,22.88
2023-03-30T13:00:47.853Z,21.00
2023-03-30T13:03:39.511Z,21.13
2023-03-30T13:06:23.650Z,22.67
2023-03-30T13:08:56.958Z,21.85
2023-03-30T13:11:25.327Z,31.83
2023-03-30T13:13:57.081Z,22.55
2023-03-30T13:17:01.875Z,21.42
2023-03-30T13:19:42.592Z,25.40
2023-03-30T13:22:29.260Z,25.40
2023-03-30T13:25:02.106Z,20.90
2023-03-30T13:27:33.910Z,22.42
2023-03-30T13:30:03.599Z,29.95
2023-03-30T13:32:58.600Z,26.70
2023-03-30T13:35:40.101Z,21.98
2023-03-30T13:38:34.389Z,21.80
2023-03-30T13:41:12.015Z,25.65
2023-03-30T13:43:52.248Z,24.15
2023-03-30T13:46:28.293Z,21.42
2023-03-30T13:49:06.969Z,21.20
2023-03-30T13:51:37.370Z,36.70
2023-03-30T13:54:13.842Z,26.52
2023-03-30T13:56:45.881Z,29.52
2023-03-30T13:59:17.593Z,25.17
2023-03-30T14:01:49.745Z,26.02
2023-03-30T14:04:17.852Z,33.03
2023-03-30T14:06:49.342Z,25.38
2023-03-30T14:09:23.289Z,24.35
2023-03-30T14:11:53.786Z,34.63
2023-03-30T14:14:28.178Z,30.67
2023-03-30T14:16:58.532Z,38.28
2023-03-30T14:19:29.252Z,31.77
2023-03-30T14:22:00.670Z,24.00
2023-03-30T14:24:32.868Z,24.30
2023-03-30T14:27:04.347Z,24.75
2023-03-30T14:29:32.431Z,23.42
2023-03-30T14:34:34.750Z,23.20
2023-03-30T14:37:06.332Z,28.33
2023-03-30T14:39:41.043Z,23.10
2023-03-30T14:42:17.068Z,23.27
2023-03-30T14:44:46.797Z,23.30
2023-03-30T14:47:15.865Z,19.42
2023-03-30T14:49:47.450Z,18.65
2023-03-30T14:52:20.004Z,19.35
2023-03-30T14:55:05.097Z,19.55
2023-03-30T14:57:38.141Z,18.25
2023-03-30T15:00:22.323Z,18.58
2023-03-30T15:02:53.250Z,18.85
2023-03-30T15:05:23.685Z,18.50
2023-03-30T15:07:52.839Z,18.27
2023-03-30T15:10:29.496Z,19.50
2023-03-30T15:12:59.004Z,18.67
2023-03-30T15:15:29.984Z,17.58
2023-03-30T15:17:58.586Z,18.38
2023-03-30T15:20:29.391Z,19.35
2023-03-30T15:22:57.939Z,17.55
2023-03-30T15:25:32.506Z,21.95
2023-03-30T15:28:04.139Z,19.15
2023-03-30T15:30:38.446Z,19.35
2023-03-30T15:33:08.165Z,19.73
2023-03-30T15:35:38.317Z,19.08
2023-03-30T15:38:17.064Z,18.75
2023-03-30T15:40:47.925Z,19.20
2023-03-30T15:43:19.087Z,18.73
2023-03-30T15:45:49.937Z,18.80
2023-03-30T15:48:20.868Z,18.08
2023-03-30T15:50:53.983Z,17.02
2023-03-30T15:53:33.364Z,19.77
2023-03-30T15:56:04.705Z,19.70
2023-03-30T15:58:34.740Z,19.63
2023-03-30T16:01:04.524Z,21.60
2023-03-30T16:03:36.378Z,18.45
2023-03-30T16:06:04.329Z,18.25
2023-03-30T16:08:32.361Z,18.65
2023-03-30T16:11:00.909Z,20.02
2023-03-30T16:13:30.416Z,19.42
2023-03-30T16:15:58.684Z,20.17
2023-03-30T16:18:26.704Z,20.83
2023-03-30T16:20:54.663Z,21.80
2023-03-30T16:23:22.594Z,20.25
2023-03-30T16:25:50.692Z,20.08
2023-03-30T16:28:19.795Z,19.02
2023-03-30T16:30:51.136Z,21.33
2023-03-30T16:33:19.163Z,21.17
2023-03-30T16:35:47.160Z,19.92
2023-03-30T16:38:17.563Z,20.15
2023-03-30T16:40:48.353Z,19.58
2023-03-30T16:43:16.407Z,19.02
2023-03-30T16:45:44.657Z,20.20
2023-03-30T16:48:15.501Z,20.42
2023-03-30T16:50:45.010Z,19.85
2023-03-30T16:53:13.603Z,20.10
2023-03-30T16:55:41.703Z,18.67
2023-03-30T16:58:13.791Z,19.13
2023-03-30T17:00:44.095Z,18.33
2023-03-30T17:03:12.043Z,19.27
2023-03-30T17:05:41.894Z,20.17
2023-03-30T17:08:18.942Z,18.63
2023-03-30T17:10:46.962Z,18.85
2023-03-30T17:13:15.307Z,18.58
2023-03-30T17:15:43.717Z,21.60
2023-03-30T17:18:14.954Z,19.50
2023-03-30T17:20:48.151Z,19.45
2023-03-30T17:23:17.710Z,19.13
2023-03-30T17:25:48.623Z,22.42
2023-03-30T17:28:22.377Z,21.23
2023-03-30T17:30:51.495Z,21.52
2023-03-30T17:33:21.100Z,23.33
2023-03-30T17:35:54.330Z,21.17
2023-03-30T17:38:22.673Z,20.08
2023-03-30T17:40:50.872Z,21.15
2023-03-30T17:43:18.941Z,21.70
2023-03-30T17:45:47.481Z,21.55
2023-03-30T17:48:17.550Z,21.00
2023-03-30T17:50:47.910Z,38.83
2023-03-30T17:53:18.502Z,22.00
2023-03-30T17:55:48.095Z,21.88
2023-03-30T17:58:19.779Z,23.08
2023-03-30T18:00:48.636Z,21.98
2023-03-30T18:03:17.646Z,22.85
2023-03-30T18:05:45.896Z,24.95
2023-03-30T18:08:17.574Z,24.05
2023-03-30T18:10:48.518Z,24.40
2023-03-30T18:13:17.276Z,24.08
2023-03-30T18:15:48.414Z,25.50
2023-03-30T18:18:22.942Z,24.23
2023-03-30T18:20:51.963Z,22.80
2023-03-30T18:23:20.392Z,22.75
2023-03-30T18:25:50.547Z,22.20
2023-03-30T18:28:20.304Z,22.35
2023-03-30T18:30:48.970Z,23.75
2023-03-30T18:33:17.276Z,23.15
2023-03-30T18:35:46.665Z,21.13
2023-03-30T18:38:18.060Z,22.10
2023-03-30T18:40:47.291Z,22.58
2023-03-30T18:43:16.803Z,22.52
2023-03-30T18:45:48.105Z,23.52
2023-03-30T18:48:17.824Z,21.25
2023-03-30T18:50:47.590Z,21.73
2023-03-30T18:53:17.741Z,22.02
2023-03-30T18:55:47.483Z,23.17
2023-03-30T18:58:20.133Z,21.48
2023-03-30T19:00:49.667Z,23.30
2023-03-30T19:03:18.581Z,21.20
2023-03-30T19:05:47.624Z,22.45
2023-03-30T19:08:17.375Z,21.40
2023-03-30T19:10:47.167Z,22.42
2023-03-30T19:13:18.838Z,22.02
2023-03-30T19:15:48.137Z,22.92
2023-03-30T19:18:17.823Z,22.23
2023-03-30T19:20:46.562Z,23.05
2023-03-30T19:23:16.029Z,22.83
2023-03-30T19:25:45.193Z,24.45
2023-03-30T19:28:14.983Z,22.60
2023-03-30T19:30:44.721Z,22.42
2023-03-30T19:33:16.364Z,23.45
2023-03-30T19:35:46.448Z,22.98
2023-03-30T19:38:14.966Z,22.77
2023-03-30T19:40:43.244Z,24.58
2023-03-30T19:43:11.416Z,22.63
2023-03-30T19:45:41.150Z,22.00
2023-03-30T19:48:10.834Z,22.33
2023-03-30T19:50:40.718Z,21.73
2023-03-30T19:53:09.442Z,20.10
2023-03-30T19:55:38.024Z,20.25
2023-03-30T19:58:06.365Z,20.27
2023-03-30T20:00:34.953Z,19.30
2023-03-30T20:03:03.577Z,20.17
2023-03-30T20:05:33.193Z,18.70
2023-03-30T20:08:10.561Z,18.35
2023-03-30T20:10:48.508Z,18.52
2023-03-30T20:13:17.100Z,19.52
2023-03-30T20:15:46.768Z,18.70
2023-03-30T20:18:14.940Z,18.92
2023-03-30T20:20:44.265Z,18.50
2023-03-30T20:23:12.576Z,18.70
2023-03-30T20:25:46.533Z,18.88
2023-03-30T20:28:14.482Z,18.63
2023-03-30T20:30:42.475Z,19.48
2023-03-30T20:33:11.108Z,18.52
2023-03-30T20:35:39.498Z,18.40
2023-03-30T20:38:09.084Z,18.27
2023-03-30T20:40:37.203Z,19.60
2023-03-30T20:43:10.561Z,18.02
2023-03-30T20:45:46.375Z,19.52
2023-03-30T20:48:26.144Z,19.00
2023-03-30T20:50:55.482Z,18.40
2023-03-30T20:53:25.009Z,19.10
2023-03-30T20:55:53.055Z,18.42
2023-03-30T20:58:22.421Z,18.60
2023-03-30T21:00:51.977Z,19.13
2023-03-30T21:03:20.351Z,18.42
2023-03-30T21:05:50.875Z,18.75
2023-03-30T21:08:18.831Z,20.23
2023-03-30T21:10:48.123Z,19.95
2023-03-30T21:13:16.945Z,20.33
2023-03-30T21:15:44.929Z,18.35
2023-03-30T21:18:12.944Z,19.70
2023-03-30T21:20:40.981Z,19.33
2023-03-30T21:23:08.946Z,20.00
2023-03-30T21:25:36.985Z,19.83
2023-03-30T21:28:06.318Z,19.95
2023-03-30T21:30:35.656Z,20.35
2023-03-30T21:33:03.889Z,18.90
2023-03-30T21:35:31.992Z,20.70
2023-03-30T21:38:00.292Z,17.33
2023-03-30T21:40:28.279Z,18.05
2023-03-30T21:42:56.257Z,19.15
2023-03-30T21:45:25.848Z,17.10
2023-03-30T21:47:54.157Z,17.52
2023-03-30T21:50:22.183Z,19.00
2023-03-30T21:52:50.212Z,18.38
2023-03-30T21:55:18.809Z,18.83
2023-03-30T21:57:46.790Z,19.23
2023-03-30T22:00:15.709Z,17.70
2023-03-30T22:02:45.093Z,19.02
2023-03-30T22:05:13.088Z,18.02
2023-03-30T22:07:41.241Z,18.50
2023-03-30T22:10:09.897Z,18.00
2023-03-30T22:12:37.928Z,17.65
2023-03-30T22:15:07.176Z,17.00
2023-03-30T22:17:41.631Z,17.45
2023-03-30T22:20:12.450Z,17.40
2023-03-30T22:22:40.721Z,15.95
2023-03-30T22:25:09.630Z,16.88
2023-03-30T22:27:37.641Z,17.17
2023-03-30T22:30:06.519Z,17.83
2023-03-30T22:32:35.264Z,17.25
2023-03-30T22:35:03.422Z,18.17
2023-03-30T22:37:32.735Z,17.30
2023-03-30T22:40:00.729Z,16.45
2023-03-30T22:42:28.863Z,17.90
2023-03-30T22:44:57.518Z,17.17
2023-03-30T22:47:25.507Z,19.27
2023-03-30T22:49:53.764Z,19.70
2023-03-30T22:52:22.324Z,18.55
2023-03-30T22:54:51.683Z,19.92
2023-03-30T22:57:19.759Z,17.77
2023-03-30T22:59:47.797Z,18.33
2023-03-30T23:02:16.117Z,18.73
2023-03-30T23:04:48.788Z,18.00
2023-03-30T23:07:17.466Z,18.23
2023-03-30T23:09:47.422Z,16.63
2023-03-30T23:12:16.923Z,17.17
2023-03-30T23:14:44.888Z,16.55
2023-03-30T23:17:12.900Z,16.60
2023-03-30T23:19:40.888Z,14.30
2023-03-30T23:22:08.948Z,15.00
2023-03-30T23:24:54.760Z,13.85
2023-03-30T23:27:24.350Z,14.60
2023-03-30T23:29:52.884Z,13.65
2023-03-30T23:32:20.973Z,15.35
2023-03-30T23:34:48.908Z,13.87
2023-03-30T23:37:17.564Z,15.20
2023-03-30T23:39:45.697Z,14.13
2023-03-30T23:42:13.638Z,14.73
2023-03-30T23:44:46.658Z,13.73
2023-03-30T23:47:14.773Z,14.70
2023-03-30T23:49:42.764Z,14.43
2023-03-30T23:52:11.091Z,15.17
2023-03-30T23:54:40.986Z,13.43
2023-03-30T23:57:09.860Z,15.80
2023-03-30T23:59:38.412Z,14.30
